SLPG weather

Progreso Airport
Moxos, El Beni Department, Bolivia

Public forecast

Using degrees Celsius for public forecast. Weather courtesy of forecast.io.

METAR (pilot weather report)

Report is more than 2 hours old.

Closest report is Santa Ana Del Yacuma Airport, 25.2 nm (46.7 km) N. Retrieved 2019/04/20 23:00 UTC (5 hours ago):

SLSA 202300Z 00000KT 9999 FEW017 FEW023CB BKN200 28/25 Q1007

TAF (pilot weather forecast)

Forecast is more than 12 hours old.

Closest forecast is Teniente Av. Jorge Henrich Arauz Airport, 46.7 nm (86.6 km) SE. Retrieved 2019/04/20 00:09 UTC (1 day ago):

TAF SLTR 202200Z 2100/2124 00000KT 9999 FEW017 SCT080 TX33/2120Z TN23/2110Z BECMG 2114/2117 33008KT TEMPO 2118/2122 8000 VCTS SCT020 FEW023CB